KHMN/HMN METAR and TAF weather

Enter ICAO airport designator
Station Type Date Time Source
KHMN METAR 2020/02/25 10:58 UTC NOAA

KHMN 251058Z AUTO 36012KT 10SM CLR 02/M08 A3002 RMK AO2 SLP135 T00211083 $


Station Type Date Time Source
KHMN Decoded METAR 2020/02/25 10:58 UTC NOAA

Holloman Air Force Base, NM, United States (KHMN) 32-51N 106-06W 1248M
Feb 25, 2020 - 05:58 AM EST / 2020.02.25 1058 UTC
Wind: from the N (360 degrees) at 14 MPH (12 KT):0
Visibility: 10 mile(s):0
Sky conditions: clear
Temperature: 35.8 F (2.1 C)
Dew Point: 17.1 F (-8.3 C)
Relative Humidity: 46%
Pressure (altimeter): 30.02 in. Hg (1016 hPa)
ob: KHMN 251058Z AUTO 36012KT 10SM CLR 02/M08 A3002 RMK AO2 SLP135 T00211083
cycle: 11

Station Type Date Time Source
KHMN TAF 2020/02/25 09:03 UTC NOAA

TAF KHMN 250900Z 2509/2615 33010G15KT 9999 SKC QNH3000INS
BECMG 2515/2516 33012G18KT 9999 SKC QNH3004INS
TEMPO 2516/2518 34015G25KT
BECMG 2517/2518 35015G25KT 9999 FEW100 QNH3005INS
BECMG 2601/2602 VRB06KT 9999 SKC QNH3019INS TX11/2522Z TNM03/2609Z

Example: see airport list